sensor_id;sensor_type;location;lat;lon;timestamp;P1;durP1;ratioP1;P2;durP2;ratioP2
10142;SDS011;5112;54.088;13.446;2022-12-11T00:08:28;15.87;;;10.80;;
10142;SDS011;5112;54.088;13.446;2022-12-11T00:18:30;17.92;;;14.30;;
10142;SDS011;5112;54.088;13.446;2022-12-11T00:28:33;17.20;;;14.57;;
10142;SDS011;5112;54.088;13.446;2022-12-11T00:38:35;16.20;;;13.17;;
10142;SDS011;5112;54.088;13.446;2022-12-11T00:48:38;14.93;;;13.32;;
10142;SDS011;5112;54.088;13.446;2022-12-11T00:58:40;15.82;;;13.40;;
10142;SDS011;5112;54.088;13.446;2022-12-11T01:08:43;14.73;;;12.90;;
10142;SDS011;5112;54.088;13.446;2022-12-11T01:18:45;14.23;;;9.47;;
10142;SDS011;5112;54.088;13.446;2022-12-11T01:28:49;15.25;;;12.05;;
10142;SDS011;5112;54.088;13.446;2022-12-11T01:38:51;15.13;;;11.80;;
10142;SDS011;5112;54.088;13.446;2022-12-11T01:48:54;12.43;;;10.90;;
10142;SDS011;5112;54.088;13.446;2022-12-11T01:58:58;11.80;;;9.07;;
10142;SDS011;5112;54.088;13.446;2022-12-11T02:09:08;9.70;;;8.20;;
10142;SDS011;5112;54.088;13.446;2022-12-11T02:19:16;14.52;;;11.25;;
10142;SDS011;5112;54.088;13.446;2022-12-11T02:29:28;11.87;;;10.20;;
10142;SDS011;5112;54.088;13.446;2022-12-11T02:39:35;11.20;;;9.68;;
10142;SDS011;5112;54.088;13.446;2022-12-11T02:49:40;10.98;;;8.52;;
10142;SDS011;5112;54.088;13.446;2022-12-11T02:59:44;12.33;;;10.57;;
10142;SDS011;5112;54.088;13.446;2022-12-11T03:09:48;13.48;;;11.32;;
10142;SDS011;5112;54.088;13.446;2022-12-11T03:19:52;12.45;;;10.48;;
10142;SDS011;5112;54.088;13.446;2022-12-11T03:30:06;13.07;;;8.53;;
10142;SDS011;5112;54.088;13.446;2022-12-11T03:40:11;12.65;;;10.30;;
10142;SDS011;5112;54.088;13.446;2022-12-11T03:50:16;11.52;;;10.05;;
10142;SDS011;5112;54.088;13.446;2022-12-11T04:00:20;11.50;;;8.40;;
10142;SDS011;5112;54.088;13.446;2022-12-11T04:10:24;12.50;;;10.77;;
10142;SDS011;5112;54.088;13.446;2022-12-11T04:20:26;12.70;;;10.90;;
10142;SDS011;5112;54.088;13.446;2022-12-11T04:30:48;11.82;;;10.27;;
10142;SDS011;5112;54.088;13.446;2022-12-11T04:40:55;12.70;;;10.90;;
10142;SDS011;5112;54.088;13.446;2022-12-11T04:50:59;14.93;;;11.70;;
10142;SDS011;5112;54.088;13.446;2022-12-11T05:01:05;11.43;;;8.20;;
10142;SDS011;5112;54.088;13.446;2022-12-11T05:11:10;14.23;;;11.77;;
10142;SDS011;5112;54.088;13.446;2022-12-11T05:21:13;12.57;;;11.02;;
10142;SDS011;5112;54.088;13.446;2022-12-11T05:31:17;12.83;;;9.07;;
10142;SDS011;5112;54.088;13.446;2022-12-11T05:41:20;14.93;;;8.60;;
10142;SDS011;5112;54.088;13.446;2022-12-11T05:51:25;17.13;;;13.70;;
10142;SDS011;5112;54.088;13.446;2022-12-11T06:01:28;12.83;;;8.77;;
10142;SDS011;5112;54.088;13.446;2022-12-11T06:11:33;16.50;;;12.90;;
10142;SDS011;5112;54.088;13.446;2022-12-11T06:21:36;13.90;;;9.53;;
10142;SDS011;5112;54.088;13.446;2022-12-11T06:31:39;15.30;;;9.43;;
10142;SDS011;5112;54.088;13.446;2022-12-11T06:41:40;16.60;;;9.57;;
10142;SDS011;5112;54.088;13.446;2022-12-11T06:51:43;16.20;;;10.67;;
10142;SDS011;5112;54.088;13.446;2022-12-11T07:01:45;13.70;;;10.17;;
10142;SDS011;5112;54.088;13.446;2022-12-11T07:11:49;16.27;;;9.70;;
10142;SDS011;5112;54.088;13.446;2022-12-11T07:21:51;16.97;;;11.57;;
10142;SDS011;5112;54.088;13.446;2022-12-11T07:31:54;17.30;;;11.83;;
10142;SDS011;5112;54.088;13.446;2022-12-11T07:41:56;20.30;;;12.83;;
10142;SDS011;5112;54.088;13.446;2022-12-11T07:51:59;18.87;;;11.57;;
10142;SDS011;5112;54.088;13.446;2022-12-11T08:02:01;17.57;;;12.03;;
10142;SDS011;5112;54.088;13.446;2022-12-11T08:12:04;15.80;;;11.33;;
10142;SDS011;5112;54.088;13.446;2022-12-11T08:22:06;18.50;;;12.23;;
10142;SDS011;5112;54.088;13.446;2022-12-11T08:32:09;17.67;;;11.37;;
10142;SDS011;5112;54.088;13.446;2022-12-11T08:42:12;19.77;;;12.33;;
10142;SDS011;5112;54.088;13.446;2022-12-11T08:52:15;20.23;;;12.27;;
10142;SDS011;5112;54.088;13.446;2022-12-11T09:02:17;15.70;;;10.80;;
10142;SDS011;5112;54.088;13.446;2022-12-11T09:12:20;14.00;;;10.40;;
10142;SDS011;5112;54.088;13.446;2022-12-11T09:22:22;20.33;;;12.80;;
10142;SDS011;5112;54.088;13.446;2022-12-11T09:32:25;14.77;;;10.63;;
10142;SDS011;5112;54.088;13.446;2022-12-11T09:42:29;13.40;;;10.40;;
10142;SDS011;5112;54.088;13.446;2022-12-11T09:52:39;15.03;;;10.67;;
10142;SDS011;5112;54.088;13.446;2022-12-11T10:03:00;15.57;;;11.27;;
10142;SDS011;5112;54.088;13.446;2022-12-11T10:13:20;16.47;;;11.17;;
10142;SDS011;5112;54.088;13.446;2022-12-11T10:23:31;15.67;;;11.17;;
10142;SDS011;5112;54.088;13.446;2022-12-11T10:33:39;17.40;;;11.03;;
10142;SDS011;5112;54.088;13.446;2022-12-11T10:43:49;15.57;;;10.90;;
10142;SDS011;5112;54.088;13.446;2022-12-11T10:53:54;20.57;;;12.33;;
10142;SDS011;5112;54.088;13.446;2022-12-11T11:03:58;19.43;;;12.93;;
10142;SDS011;5112;54.088;13.446;2022-12-11T11:14:11;18.00;;;13.23;;
10142;SDS011;5112;54.088;13.446;2022-12-11T11:24:18;18.10;;;12.27;;
10142;SDS011;5112;54.088;13.446;2022-12-11T11:34:28;18.17;;;12.53;;
10142;SDS011;5112;54.088;13.446;2022-12-11T11:44:30;21.90;;;15.03;;
10142;SDS011;5112;54.088;13.446;2022-12-11T11:54:38;17.17;;;11.50;;
10142;SDS011;5112;54.088;13.446;2022-12-11T12:04:46;16.93;;;11.07;;
10142;SDS011;5112;54.088;13.446;2022-12-11T12:25:21;18.07;;;13.50;;
10142;SDS011;5112;54.088;13.446;2022-12-11T12:35:32;13.83;;;10.00;;
10142;SDS011;5112;54.088;13.446;2022-12-11T12:45:36;13.97;;;10.90;;
10142;SDS011;5112;54.088;13.446;2022-12-11T12:55:45;12.10;;;9.70;;
10142;SDS011;5112;54.088;13.446;2022-12-11T13:05:54;10.90;;;8.60;;
10142;SDS011;5112;54.088;13.446;2022-12-11T13:26:27;7.40;;;6.13;;
10142;SDS011;5112;54.088;13.446;2022-12-11T13:36:32;8.37;;;6.43;;
10142;SDS011;5112;54.088;13.446;2022-12-11T13:46:37;6.33;;;5.73;;
10142;SDS011;5112;54.088;13.446;2022-12-11T13:56:51;7.73;;;5.93;;
10142;SDS011;5112;54.088;13.446;2022-12-11T14:06:58;7.43;;;6.30;;
10142;SDS011;5112;54.088;13.446;2022-12-11T14:17:03;6.20;;;5.57;;
10142;SDS011;5112;54.088;13.446;2022-12-11T14:27:11;8.60;;;6.43;;
10142;SDS011;5112;54.088;13.446;2022-12-11T14:37:18;5.57;;;4.97;;
10142;SDS011;5112;54.088;13.446;2022-12-11T14:47:23;6.63;;;5.10;;
10142;SDS011;5112;54.088;13.446;2022-12-11T14:57:29;8.10;;;6.63;;
10142;SDS011;5112;54.088;13.446;2022-12-11T15:07:32;4.30;;;3.77;;
10142;SDS011;5112;54.088;13.446;2022-12-11T15:17:36;3.83;;;3.50;;
10142;SDS011;5112;54.088;13.446;2022-12-11T15:27:37;10.00;;;7.90;;
10142;SDS011;5112;54.088;13.446;2022-12-11T15:37:50;6.87;;;6.20;;
10142;SDS011;5112;54.088;13.446;2022-12-11T15:47:52;4.83;;;4.07;;
10142;SDS011;5112;54.088;13.446;2022-12-11T15:57:56;3.00;;;2.80;;
10142;SDS011;5112;54.088;13.446;2022-12-11T16:08:00;3.50;;;3.20;;
10142;SDS011;5112;54.088;13.446;2022-12-11T16:18:03;4.07;;;2.93;;
10142;SDS011;5112;54.088;13.446;2022-12-11T16:28:07;3.97;;;3.57;;
10142;SDS011;5112;54.088;13.446;2022-12-11T16:38:12;5.70;;;5.20;;
10142;SDS011;5112;54.088;13.446;2022-12-11T16:48:14;7.00;;;6.30;;
10142;SDS011;5112;54.088;13.446;2022-12-11T16:58:17;3.60;;;3.30;;
10142;SDS011;5112;54.088;13.446;2022-12-11T17:08:19;4.80;;;4.33;;
10142;SDS011;5112;54.088;13.446;2022-12-11T17:18:22;4.67;;;3.80;;
10142;SDS011;5112;54.088;13.446;2022-12-11T17:28:23;4.60;;;4.27;;
10142;SDS011;5112;54.088;13.446;2022-12-11T17:38:26;4.97;;;4.47;;
10142;SDS011;5112;54.088;13.446;2022-12-11T17:48:28;4.00;;;3.60;;
10142;SDS011;5112;54.088;13.446;2022-12-11T17:58:31;3.57;;;3.20;;
10142;SDS011;5112;54.088;13.446;2022-12-11T18:08:34;7.00;;;3.90;;
10142;SDS011;5112;54.088;13.446;2022-12-11T18:18:37;4.20;;;2.90;;
10142;SDS011;5112;54.088;13.446;2022-12-11T18:28:39;1.40;;;1.30;;
10142;SDS011;5112;54.088;13.446;2022-12-11T18:38:42;1.70;;;1.60;;
10142;SDS011;5112;54.088;13.446;2022-12-11T18:48:44;1.17;;;1.17;;
10142;SDS011;5112;54.088;13.446;2022-12-11T18:58:48;2.63;;;1.20;;
10142;SDS011;5112;54.088;13.446;2022-12-11T19:08:51;3.23;;;2.87;;
10142;SDS011;5112;54.088;13.446;2022-12-11T19:18:54;1.70;;;1.60;;
10142;SDS011;5112;54.088;13.446;2022-12-11T19:28:57;2.47;;;1.90;;
10142;SDS011;5112;54.088;13.446;2022-12-11T19:39:01;2.30;;;2.07;;
10142;SDS011;5112;54.088;13.446;2022-12-11T19:49:03;2.53;;;2.33;;
10142;SDS011;5112;54.088;13.446;2022-12-11T19:59:07;3.13;;;2.90;;
10142;SDS011;5112;54.088;13.446;2022-12-11T20:09:13;2.60;;;2.03;;
10142;SDS011;5112;54.088;13.446;2022-12-11T20:19:17;2.27;;;2.07;;
10142;SDS011;5112;54.088;13.446;2022-12-11T20:29:19;1.80;;;1.70;;
10142;SDS011;5112;54.088;13.446;2022-12-11T20:39:22;2.87;;;2.40;;
10142;SDS011;5112;54.088;13.446;2022-12-11T20:49:23;15.23;;;11.53;;
10142;SDS011;5112;54.088;13.446;2022-12-11T20:59:26;2.20;;;1.93;;
10142;SDS011;5112;54.088;13.446;2022-12-11T21:09:28;4.57;;;3.23;;
10142;SDS011;5112;54.088;13.446;2022-12-11T21:19:31;3.67;;;3.10;;
10142;SDS011;5112;54.088;13.446;2022-12-11T21:29:33;3.77;;;2.87;;
10142;SDS011;5112;54.088;13.446;2022-12-11T21:39:36;3.37;;;3.07;;
10142;SDS011;5112;54.088;13.446;2022-12-11T21:49:38;3.90;;;3.50;;
10142;SDS011;5112;54.088;13.446;2022-12-11T21:59:41;3.63;;;2.73;;
10142;SDS011;5112;54.088;13.446;2022-12-11T22:09:42;4.53;;;4.10;;
10142;SDS011;5112;54.088;13.446;2022-12-11T22:19:45;4.20;;;3.70;;
10142;SDS011;5112;54.088;13.446;2022-12-11T22:29:47;3.10;;;2.80;;
10142;SDS011;5112;54.088;13.446;2022-12-11T22:39:50;2.70;;;2.50;;
10142;SDS011;5112;54.088;13.446;2022-12-11T22:49:52;3.37;;;2.73;;
10142;SDS011;5112;54.088;13.446;2022-12-11T22:59:55;3.80;;;2.83;;
10142;SDS011;5112;54.088;13.446;2022-12-11T23:09:57;1.87;;;1.70;;
10142;SDS011;5112;54.088;13.446;2022-12-11T23:20:00;2.37;;;2.03;;
10142;SDS011;5112;54.088;13.446;2022-12-11T23:30:05;2.40;;;2.20;;
10142;SDS011;5112;54.088;13.446;2022-12-11T23:40:09;2.43;;;2.10;;
10142;SDS011;5112;54.088;13.446;2022-12-11T23:50:13;2.33;;;1.50;;
